sensor_id;sensor_type;location;lat;lon;timestamp;pressure;altitude;pressure_sealevel;temperature;humidity
20156;BME280;10238;49.556;10.956;2024-02-26T00:01:00;96749.81;;;0.85;100.00
20156;BME280;10238;49.556;10.956;2024-02-26T00:03:51;96744.84;;;0.82;100.00
20156;BME280;10238;49.556;10.956;2024-02-26T00:06:42;96739.88;;;0.79;100.00
20156;BME280;10238;49.556;10.956;2024-02-26T00:09:31;96740.16;;;0.76;100.00
20156;BME280;10238;49.556;10.956;2024-02-26T00:12:22;96745.63;;;0.73;100.00
20156;BME280;10238;49.556;10.956;2024-02-26T00:15:12;96751.16;;;0.70;100.00
20156;BME280;10238;49.556;10.956;2024-02-26T00:18:00;96734.06;;;0.66;100.00
20156;BME280;10238;49.556;10.956;2024-02-26T00:20:48;96726.63;;;0.62;100.00
20156;BME280;10238;49.556;10.956;2024-02-26T00:23:36;96724.41;;;0.57;100.00
20156;BME280;10238;49.556;10.956;2024-02-26T00:26:23;96734.19;;;0.55;100.00
20156;BME280;10238;49.556;10.956;2024-02-26T00:29:11;96722.22;;;0.53;100.00
20156;BME280;10238;49.556;10.956;2024-02-26T00:32:00;96725.91;;;0.50;100.00
20156;BME280;10238;49.556;10.956;2024-02-26T00:34:47;96720.81;;;0.49;100.00
20156;BME280;10238;49.556;10.956;2024-02-26T00:37:37;96720.28;;;0.45;100.00
20156;BME280;10238;49.556;10.956;2024-02-26T00:40:24;96716.13;;;0.43;100.00
20156;BME280;10238;49.556;10.956;2024-02-26T00:43:12;96712.00;;;0.40;100.00
20156;BME280;10238;49.556;10.956;2024-02-26T00:46:00;96712.25;;;0.37;100.00
20156;BME280;10238;49.556;10.956;2024-02-26T00:48:49;96707.28;;;0.34;100.00
20156;BME280;10238;49.556;10.956;2024-02-26T00:51:37;96705.91;;;0.30;100.00
20156;BME280;10238;49.556;10.956;2024-02-26T00:54:25;96709.63;;;0.28;100.00
20156;BME280;10238;49.556;10.956;2024-02-26T00:57:13;96705.47;;;0.25;100.00
20156;BME280;10238;49.556;10.956;2024-02-26T01:00:01;96710.00;;;0.23;100.00
20156;BME280;10238;49.556;10.956;2024-02-26T01:02:48;96714.66;;;0.20;100.00
20156;BME280;10238;49.556;10.956;2024-02-26T01:05:37;96714.00;;;0.18;100.00
20156;BME280;10238;49.556;10.956;2024-02-26T01:08:25;96713.28;;;0.16;100.00
20156;BME280;10238;49.556;10.956;2024-02-26T01:11:13;96714.38;;;0.13;100.00
20156;BME280;10238;49.556;10.956;2024-02-26T01:14:01;96714.63;;;0.10;100.00
20156;BME280;10238;49.556;10.956;2024-02-26T01:16:50;96711.44;;;0.07;100.00
20156;BME280;10238;49.556;10.956;2024-02-26T01:19:38;96703.03;;;0.03;100.00
20156;BME280;10238;49.556;10.956;2024-02-26T01:22:27;96709.22;;;0.02;100.00
20156;BME280;10238;49.556;10.956;2024-02-26T01:25:14;96712.09;;;-0.01;100.00
20156;BME280;10238;49.556;10.956;2024-02-26T01:28:03;96719.25;;;-0.03;100.00
20156;BME280;10238;49.556;10.956;2024-02-26T01:30:51;96714.28;;;-0.06;100.00
20156;BME280;10238;49.556;10.956;2024-02-26T01:33:38;96706.59;;;-0.08;100.00
20156;BME280;10238;49.556;10.956;2024-02-26T01:36:27;96703.13;;;-0.08;100.00
20156;BME280;10238;49.556;10.956;2024-02-26T01:39:18;96702.16;;;-0.07;100.00
20156;BME280;10238;49.556;10.956;2024-02-26T01:42:08;96707.38;;;-0.07;100.00
20156;BME280;10238;49.556;10.956;2024-02-26T01:44:56;96702.16;;;-0.07;100.00
20156;BME280;10238;49.556;10.956;2024-02-26T01:47:44;96703.84;;;-0.06;100.00
20156;BME280;10238;49.556;10.956;2024-02-26T01:50:33;96702.88;;;-0.05;100.00
20156;BME280;10238;49.556;10.956;2024-02-26T01:53:22;96705.22;;;-0.02;100.00
20156;BME280;10238;49.556;10.956;2024-02-26T01:56:11;96702.50;;;-0.01;100.00
20156;BME280;10238;49.556;10.956;2024-02-26T01:59:00;96711.00;;;0.01;100.00
20156;BME280;10238;49.556;10.956;2024-02-26T02:01:57;96708.25;;;0.03;100.00
20156;BME280;10238;49.556;10.956;2024-02-26T02:04:46;96715.72;;;0.08;100.00
20156;BME280;10238;49.556;10.956;2024-02-26T02:07:34;96715.19;;;0.14;100.00
20156;BME280;10238;49.556;10.956;2024-02-26T02:10:23;96719.75;;;0.21;100.00
20156;BME280;10238;49.556;10.956;2024-02-26T02:13:13;96713.31;;;0.25;100.00
20156;BME280;10238;49.556;10.956;2024-02-26T02:16:01;96710.44;;;0.28;100.00
20156;BME280;10238;49.556;10.956;2024-02-26T02:18:49;96715.84;;;0.36;100.00
20156;BME280;10238;49.556;10.956;2024-02-26T02:21:38;96710.09;;;0.42;100.00
20156;BME280;10238;49.556;10.956;2024-02-26T02:24:26;96709.69;;;0.47;100.00
20156;BME280;10238;49.556;10.956;2024-02-26T02:27:13;96715.31;;;0.52;100.00
20156;BME280;10238;49.556;10.956;2024-02-26T02:30:02;96706.13;;;0.57;100.00
20156;BME280;10238;49.556;10.956;2024-02-26T02:32:52;96714.41;;;0.62;100.00
20156;BME280;10238;49.556;10.956;2024-02-26T02:35:41;96723.19;;;0.61;100.00
20156;BME280;10238;49.556;10.956;2024-02-26T02:38:30;96729.09;;;0.63;100.00
20156;BME280;10238;49.556;10.956;2024-02-26T02:41:18;96726.41;;;0.74;100.00
20156;BME280;10238;49.556;10.956;2024-02-26T02:44:05;96724.47;;;0.76;100.00
20156;BME280;10238;49.556;10.956;2024-02-26T02:46:53;96706.28;;;0.75;100.00
20156;BME280;10238;49.556;10.956;2024-02-26T02:49:41;96708.38;;;0.71;100.00
20156;BME280;10238;49.556;10.956;2024-02-26T02:52:29;96705.75;;;0.71;100.00
20156;BME280;10238;49.556;10.956;2024-02-26T02:55:18;96712.63;;;0.72;100.00
20156;BME280;10238;49.556;10.956;2024-02-26T02:58:05;96705.47;;;0.74;100.00
20156;BME280;10238;49.556;10.956;2024-02-26T03:00:53;96708.50;;;0.79;100.00
20156;BME280;10238;49.556;10.956;2024-02-26T03:03:41;96706.47;;;0.83;100.00
20156;BME280;10238;49.556;10.956;2024-02-26T03:06:29;96704.41;;;0.86;100.00
20156;BME280;10238;49.556;10.956;2024-02-26T03:09:17;96704.41;;;0.86;100.00
20156;BME280;10238;49.556;10.956;2024-02-26T03:12:06;96705.50;;;0.93;100.00
20156;BME280;10238;49.556;10.956;2024-02-26T03:14:56;96704.69;;;1.02;100.00
20156;BME280;10238;49.556;10.956;2024-02-26T03:17:44;96701.66;;;1.16;100.00
20156;BME280;10238;49.556;10.956;2024-02-26T03:20:31;96699.47;;;1.31;100.00
20156;BME280;10238;49.556;10.956;2024-02-26T03:23:19;96701.91;;;1.42;100.00
20156;BME280;10238;49.556;10.956;2024-02-26T03:26:07;96696.69;;;1.51;100.00
20156;BME280;10238;49.556;10.956;2024-02-26T03:28:56;96694.50;;;1.56;100.00
20156;BME280;10238;49.556;10.956;2024-02-26T03:31:44;96699.13;;;1.62;100.00
20156;BME280;10238;49.556;10.956;2024-02-26T03:34:32;96709.59;;;1.62;100.00
20156;BME280;10238;49.556;10.956;2024-02-26T03:37:21;96711.13;;;1.55;100.00
20156;BME280;10238;49.556;10.956;2024-02-26T03:40:11;96707.13;;;1.61;100.00
20156;BME280;10238;49.556;10.956;2024-02-26T03:43:00;96709.88;;;1.59;100.00
20156;BME280;10238;49.556;10.956;2024-02-26T03:45:50;96713.47;;;1.58;100.00
20156;BME280;10238;49.556;10.956;2024-02-26T03:48:38;96705.91;;;1.55;100.00
20156;BME280;10238;49.556;10.956;2024-02-26T03:51:26;96701.91;;;1.51;100.00
20156;BME280;10238;49.556;10.956;2024-02-26T03:54:17;96707.44;;;1.48;100.00
20156;BME280;10238;49.556;10.956;2024-02-26T03:57:05;96707.44;;;1.48;100.00
20156;BME280;10238;49.556;10.956;2024-02-26T03:59:53;96701.34;;;1.48;100.00
20156;BME280;10238;49.556;10.956;2024-02-26T04:02:42;96701.50;;;1.46;100.00
20156;BME280;10238;49.556;10.956;2024-02-26T04:05:30;96697.94;;;1.47;100.00
20156;BME280;10238;49.556;10.956;2024-02-26T04:08:17;96699.72;;;1.47;100.00
20156;BME280;10238;49.556;10.956;2024-02-26T04:11:05;96697.53;;;1.52;100.00
20156;BME280;10238;49.556;10.956;2024-02-26T04:13:53;96703.72;;;1.60;100.00
20156;BME280;10238;49.556;10.956;2024-02-26T04:16:41;96694.50;;;1.56;100.00
20156;BME280;10238;49.556;10.956;2024-02-26T04:19:30;96694.06;;;1.51;100.00
20156;BME280;10238;49.556;10.956;2024-02-26T04:22:18;96700.81;;;1.54;100.00
20156;BME280;10238;49.556;10.956;2024-02-26T04:25:06;96708.25;;;1.58;100.00
20156;BME280;10238;49.556;10.956;2024-02-26T04:27:54;96705.34;;;1.61;100.00
20156;BME280;10238;49.556;10.956;2024-02-26T04:30:41;96708.38;;;1.66;100.00
20156;BME280;10238;49.556;10.956;2024-02-26T04:33:29;96713.72;;;1.74;100.00
20156;BME280;10238;49.556;10.956;2024-02-26T04:36:19;96706.38;;;1.87;100.00
20156;BME280;10238;49.556;10.956;2024-02-26T04:39:06;96701.53;;;2.02;100.00
20156;BME280;10238;49.556;10.956;2024-02-26T04:41:54;96708.81;;;2.17;100.00
20156;BME280;10238;49.556;10.956;2024-02-26T04:44:42;96717.72;;;2.24;100.00
20156;BME280;10238;49.556;10.956;2024-02-26T04:47:29;96709.16;;;2.32;100.00
20156;BME280;10238;49.556;10.956;2024-02-26T04:50:17;96713.13;;;2.36;100.00
20156;BME280;10238;49.556;10.956;2024-02-26T04:53:08;96715.75;;;2.36;100.00
20156;BME280;10238;49.556;10.956;2024-02-26T04:55:55;96722.06;;;2.43;100.00
20156;BME280;10238;49.556;10.956;2024-02-26T04:58:44;96724.53;;;2.45;100.00
20156;BME280;10238;49.556;10.956;2024-02-26T05:01:31;96719.00;;;2.48;100.00
20156;BME280;10238;49.556;10.956;2024-02-26T05:04:19;96726.31;;;2.54;100.00
20156;BME280;10238;49.556;10.956;2024-02-26T05:07:07;96727.00;;;2.56;100.00
20156;BME280;10238;49.556;10.956;2024-02-26T05:09:56;96719.78;;;2.58;100.00
20156;BME280;10238;49.556;10.956;2024-02-26T05:12:43;96717.56;;;2.63;100.00
20156;BME280;10238;49.556;10.956;2024-02-26T05:15:31;96728.06;;;2.63;100.00
20156;BME280;10238;49.556;10.956;2024-02-26T05:18:19;96721.81;;;2.64;100.00
20156;BME280;10238;49.556;10.956;2024-02-26T05:21:07;96720.03;;;2.64;100.00
20156;BME280;10238;49.556;10.956;2024-02-26T05:23:55;96724.44;;;2.64;100.00
20156;BME280;10238;49.556;10.956;2024-02-26T05:26:45;96721.81;;;2.64;100.00
20156;BME280;10238;49.556;10.956;2024-02-26T05:29:33;96723.78;;;2.62;100.00
20156;BME280;10238;49.556;10.956;2024-02-26T05:32:21;96721.81;;;2.64;100.00
20156;BME280;10238;49.556;10.956;2024-02-26T05:35:08;96721.41;;;2.68;100.00
20156;BME280;10238;49.556;10.956;2024-02-26T05:37:56;96731.03;;;2.68;100.00
20156;BME280;10238;49.556;10.956;2024-02-26T05:40:44;96732.31;;;2.64;100.00
20156;BME280;10238;49.556;10.956;2024-02-26T05:43:33;96740.47;;;2.61;100.00
20156;BME280;10238;49.556;10.956;2024-02-26T05:46:22;96744.91;;;2.60;100.00
20156;BME280;10238;49.556;10.956;2024-02-26T05:49:10;96753.59;;;2.61;100.00
20156;BME280;10238;49.556;10.956;2024-02-26T05:51:57;96752.09;;;2.58;100.00
20156;BME280;10238;49.556;10.956;2024-02-26T05:54:45;96743.09;;;2.61;100.00
20156;BME280;10238;49.556;10.956;2024-02-26T05:57:34;96739.53;;;2.62;100.00
20156;BME280;10238;49.556;10.956;2024-02-26T06:00:23;96748.34;;;2.61;100.00
20156;BME280;10238;49.556;10.956;2024-02-26T06:03:10;96754.50;;;2.69;100.00
20156;BME280;10238;49.556;10.956;2024-02-26T06:05:58;96744.81;;;2.79;100.00
20156;BME280;10238;49.556;10.956;2024-02-26T06:08:46;96752.53;;;2.81;100.00
20156;BME280;10238;49.556;10.956;2024-02-26T06:11:33;96751.13;;;2.86;100.00
20156;BME280;10238;49.556;10.956;2024-02-26T06:14:21;96756.22;;;2.88;100.00
20156;BME280;10238;49.556;10.956;2024-02-26T06:17:11;96751.94;;;2.87;100.00
20156;BME280;10238;49.556;10.956;2024-02-26T06:19:58;96756.59;;;2.93;100.00
20156;BME280;10238;49.556;10.956;2024-02-26T06:22:47;96759.22;;;2.93;100.00
20156;BME280;10238;49.556;10.956;2024-02-26T06:25:35;96763.50;;;2.94;100.00
20156;BME280;10238;49.556;10.956;2024-02-26T06:28:24;96764.47;;;2.93;100.00
20156;BME280;10238;49.556;10.956;2024-02-26T06:31:11;96763.50;;;2.94;100.00
20156;BME280;10238;49.556;10.956;2024-02-26T06:34:00;96766.00;;;2.95;100.00
20156;BME280;10238;49.556;10.956;2024-02-26T06:36:48;96764.88;;;2.98;100.00
20156;BME280;10238;49.556;10.956;2024-02-26T06:39:36;96780.59;;;2.98;100.00
20156;BME280;10238;49.556;10.956;2024-02-26T06:42:24;96782.66;;;3.04;100.00
20156;BME280;10238;49.556;10.956;2024-02-26T06:45:12;96779.16;;;3.13;100.00
20156;BME280;10238;49.556;10.956;2024-02-26T06:47:59;96779.38;;;3.19;100.00
20156;BME280;10238;49.556;10.956;2024-02-26T06:50:49;96778.25;;;3.22;100.00
20156;BME280;10238;49.556;10.956;2024-02-26T06:53:37;96776.31;;;3.24;100.00
20156;BME280;10238;49.556;10.956;2024-02-26T06:56:24;96781.25;;;3.27;100.00
20156;BME280;10238;49.556;10.956;2024-02-26T06:59:12;96786.38;;;3.28;100.00
20156;BME280;10238;49.556;10.956;2024-02-26T07:02:00;96790.78;;;3.28;100.00
20156;BME280;10238;49.556;10.956;2024-02-26T07:04:47;96794.25;;;3.28;100.00
20156;BME280;10238;49.556;10.956;2024-02-26T07:07:36;96795.06;;;3.29;100.00
20156;BME280;10238;49.556;10.956;2024-02-26T07:10:24;96794.63;;;3.33;100.00
20156;BME280;10238;49.556;10.956;2024-02-26T07:13:12;96797.78;;;3.37;100.00
20156;BME280;10238;49.556;10.956;2024-02-26T07:15:59;96802.44;;;3.43;100.00
20156;BME280;10238;49.556;10.956;2024-02-26T07:18:47;96796.59;;;3.49;100.00
20156;BME280;10238;49.556;10.956;2024-02-26T07:21:34;96800.94;;;3.58;100.00
20156;BME280;10238;49.556;10.956;2024-02-26T07:24:23;96792.31;;;3.65;100.00
20156;BME280;10238;49.556;10.956;2024-02-26T07:27:11;96796.78;;;3.73;100.00
20156;BME280;10238;49.556;10.956;2024-02-26T07:29:59;96815.56;;;3.78;100.00
20156;BME280;10238;49.556;10.956;2024-02-26T07:32:47;96835.47;;;3.80;100.00
20156;BME280;10238;49.556;10.956;2024-02-26T07:35:36;96820.28;;;3.92;100.00
20156;BME280;10238;49.556;10.956;2024-02-26T07:38:25;96822.69;;;4.03;100.00
20156;BME280;10238;49.556;10.956;2024-02-26T07:41:29;96812.63;;;4.16;100.00
20156;BME280;10238;49.556;10.956;2024-02-26T07:44:16;96820.09;;;4.28;100.00
20156;BME280;10238;49.556;10.956;2024-02-26T07:47:06;96816.25;;;4.40;100.00
20156;BME280;10238;49.556;10.956;2024-02-26T07:49:53;96823.59;;;4.55;100.00
20156;BME280;10238;49.556;10.956;2024-02-26T07:52:41;96822.31;;;4.67;100.00
20156;BME280;10238;49.556;10.956;2024-02-26T07:55:28;96819.94;;;4.81;100.00
20156;BME280;10238;49.556;10.956;2024-02-26T07:58:17;96816.72;;;4.95;100.00
20156;BME280;10238;49.556;10.956;2024-02-26T08:01:05;96818.41;;;5.04;100.00
20156;BME280;10238;49.556;10.956;2024-02-26T08:03:53;96815.66;;;5.14;100.00
20156;BME280;10238;49.556;10.956;2024-02-26T08:06:41;96815.84;;;5.20;100.00
20156;BME280;10238;49.556;10.956;2024-02-26T08:09:29;96824.44;;;5.30;100.00
20156;BME280;10238;49.556;10.956;2024-02-26T08:12:17;96830.03;;;5.35;100.00
20156;BME280;10238;49.556;10.956;2024-02-26T08:15:07;96831.38;;;5.39;100.00
20156;BME280;10238;49.556;10.956;2024-02-26T08:17:56;96845.22;;;5.41;100.00
20156;BME280;10238;49.556;10.956;2024-02-26T08:20:43;96838.13;;;5.42;100.00
20156;BME280;10238;49.556;10.956;2024-02-26T08:23:31;96850.47;;;5.41;100.00
20156;BME280;10238;49.556;10.956;2024-02-26T08:26:19;96845.06;;;5.43;100.00
20156;BME280;10238;49.556;10.956;2024-02-26T08:29:08;96850.78;;;5.38;100.00
20156;BME280;10238;49.556;10.956;2024-02-26T08:31:57;96854.94;;;5.41;100.00
20156;BME280;10238;49.556;10.956;2024-02-26T08:34:45;96852.94;;;5.43;100.00
20156;BME280;10238;49.556;10.956;2024-02-26T08:37:34;96849.84;;;5.47;100.00
20156;BME280;10238;49.556;10.956;2024-02-26T08:40:21;96848.72;;;5.58;100.00
20156;BME280;10238;49.556;10.956;2024-02-26T08:43:09;96848.25;;;5.62;100.00
20156;BME280;10238;49.556;10.956;2024-02-26T08:45:57;96849.25;;;5.69;100.00
20156;BME280;10238;49.556;10.956;2024-02-26T08:48:46;96849.91;;;5.71;100.00
20156;BME280;10238;49.556;10.956;2024-02-26T08:51:34;96858.16;;;5.76;100.00
20156;BME280;10238;49.556;10.956;2024-02-26T08:54:21;96838.28;;;5.82;100.00
20156;BME280;10238;49.556;10.956;2024-02-26T08:57:10;96835.81;;;5.88;100.00
20156;BME280;10238;49.556;10.956;2024-02-26T08:59:58;96839.44;;;5.95;100.00
20156;BME280;10238;49.556;10.956;2024-02-26T09:02:47;96845.38;;;6.05;100.00
20156;BME280;10238;49.556;10.956;2024-02-26T09:05:37;96832.72;;;6.17;100.00
20156;BME280;10238;49.556;10.956;2024-02-26T09:08:25;96832.84;;;6.23;100.00
20156;BME280;10238;49.556;10.956;2024-02-26T09:11:12;96834.34;;;6.34;100.00
20156;BME280;10238;49.556;10.956;2024-02-26T09:14:00;96829.38;;;6.47;100.00
20156;BME280;10238;49.556;10.956;2024-02-26T09:16:48;96829.19;;;6.56;100.00
20156;BME280;10238;49.556;10.956;2024-02-26T09:19:36;96827.56;;;6.63;100.00
20156;BME280;10238;49.556;10.956;2024-02-26T09:22:25;96830.84;;;6.74;100.00
20156;BME280;10238;49.556;10.956;2024-02-26T09:25:13;96837.59;;;6.84;100.00
20156;BME280;10238;49.556;10.956;2024-02-26T09:28:02;96824.50;;;6.91;100.00
20156;BME280;10238;49.556;10.956;2024-02-26T09:30:49;96820.84;;;7.00;100.00
20156;BME280;10238;49.556;10.956;2024-02-26T09:33:37;96818.22;;;7.08;100.00
20156;BME280;10238;49.556;10.956;2024-02-26T09:36:25;96821.81;;;7.15;100.00
20156;BME280;10238;49.556;10.956;2024-02-26T09:39:14;96812.16;;;7.30;100.00
20156;BME280;10238;49.556;10.956;2024-02-26T09:42:10;96807.16;;;7.43;100.00
20156;BME280;10238;49.556;10.956;2024-02-26T09:45:00;96792.69;;;7.53;100.00
20156;BME280;10238;49.556;10.956;2024-02-26T09:47:56;96784.56;;;7.63;100.00
20156;BME280;10238;49.556;10.956;2024-02-26T09:50:44;96789.09;;;7.77;100.00
20156;BME280;10238;49.556;10.956;2024-02-26T09:53:32;96782.09;;;7.84;100.00
20156;BME280;10238;49.556;10.956;2024-02-26T09:56:27;96780.59;;;7.89;100.00
20156;BME280;10238;49.556;10.956;2024-02-26T09:59:17;96774.59;;;7.95;100.00
20156;BME280;10238;49.556;10.956;2024-02-26T10:02:09;96776.16;;;8.04;100.00
20156;BME280;10238;49.556;10.956;2024-02-26T10:04:59;96789.31;;;8.12;100.00
20156;BME280;10238;49.556;10.956;2024-02-26T10:07:52;96803.31;;;8.21;100.00
20156;BME280;10238;49.556;10.956;2024-02-26T10:10:42;96792.53;;;8.30;100.00
20156;BME280;10238;49.556;10.956;2024-02-26T10:13:31;96774.75;;;8.39;100.00
20156;BME280;10238;49.556;10.956;2024-02-26T10:16:19;96763.69;;;8.50;100.00
20156;BME280;10238;49.556;10.956;2024-02-26T10:19:07;96779.53;;;8.58;100.00
20156;BME280;10238;49.556;10.956;2024-02-26T10:21:57;96792.31;;;8.69;100.00
20156;BME280;10238;49.556;10.956;2024-02-26T10:24:47;96783.19;;;8.86;100.00
20156;BME280;10238;49.556;10.956;2024-02-26T10:27:35;96792.50;;;9.11;100.00
20156;BME280;10238;49.556;10.956;2024-02-26T10:30:24;96805.75;;;9.26;100.00
20156;BME280;10238;49.556;10.956;2024-02-26T10:33:13;96795.22;;;9.32;100.00
20156;BME280;10238;49.556;10.956;2024-02-26T10:36:01;96801.94;;;9.28;100.00
20156;BME280;10238;49.556;10.956;2024-02-26T10:38:49;96801.94;;;9.28;100.00
20156;BME280;10238;49.556;10.956;2024-02-26T10:41:40;96804.84;;;9.19;100.00
20156;BME280;10238;49.556;10.956;2024-02-26T10:44:28;96800.06;;;9.29;100.00
20156;BME280;10238;49.556;10.956;2024-02-26T10:47:17;96812.13;;;9.46;100.00
20156;BME280;10238;49.556;10.956;2024-02-26T10:50:06;96809.84;;;9.57;100.00
20156;BME280;10238;49.556;10.956;2024-02-26T10:52:56;96808.97;;;9.71;100.00
20156;BME280;10238;49.556;10.956;2024-02-26T10:55:48;96805.47;;;9.85;100.00
20156;BME280;10238;49.556;10.956;2024-02-26T10:58:36;96804.69;;;9.91;100.00
20156;BME280;10238;49.556;10.956;2024-02-26T11:01:24;96812.72;;;9.98;100.00
20156;BME280;10238;49.556;10.956;2024-02-26T11:04:16;96812.34;;;10.01;100.00
20156;BME280;10238;49.556;10.956;2024-02-26T11:07:06;96802.09;;;10.12;100.00
20156;BME280;10238;49.556;10.956;2024-02-26T11:10:00;96801.81;;;10.28;100.00
20156;BME280;10238;49.556;10.956;2024-02-26T11:12:49;96811.81;;;10.47;100.00
20156;BME280;10238;49.556;10.956;2024-02-26T11:15:39;96807.28;;;10.69;100.00
20156;BME280;10238;49.556;10.956;2024-02-26T11:18:27;96806.66;;;10.94;100.00
20156;BME280;10238;49.556;10.956;2024-02-26T11:21:19;96801.16;;;11.37;100.00
20156;BME280;10238;49.556;10.956;2024-02-26T11:24:15;96798.25;;;11.66;100.00
20156;BME280;10238;49.556;10.956;2024-02-26T11:27:06;96791.16;;;11.92;100.00
20156;BME280;10238;49.556;10.956;2024-02-26T11:29:56;96792.59;;;11.95;100.00
20156;BME280;10238;49.556;10.956;2024-02-26T11:32:46;96796.28;;;11.94;100.00
20156;BME280;10238;49.556;10.956;2024-02-26T11:35:36;96786.50;;;12.14;100.00
20156;BME280;10238;49.556;10.956;2024-02-26T11:38:27;96782.41;;;12.11;100.00
20156;BME280;10238;49.556;10.956;2024-02-26T11:41:15;96774.22;;;12.39;100.00
20156;BME280;10238;49.556;10.956;2024-02-26T11:44:04;96776.06;;;12.71;100.00
20156;BME280;10238;49.556;10.956;2024-02-26T11:46:53;96771.13;;;12.81;100.00
20156;BME280;10238;49.556;10.956;2024-02-26T11:49:40;96779.72;;;12.96;100.00
20156;BME280;10238;49.556;10.956;2024-02-26T11:52:28;96775.44;;;13.08;100.00
20156;BME280;10238;49.556;10.956;2024-02-26T11:55:32;96783.16;;;13.29;100.00
20156;BME280;10238;49.556;10.956;2024-02-26T11:58:20;96789.91;;;13.45;100.00
20156;BME280;10238;49.556;10.956;2024-02-26T12:01:39;96788.13;;;13.76;100.00
20156;BME280;10238;49.556;10.956;2024-02-26T12:04:30;96786.25;;;13.83;100.00
20156;BME280;10238;49.556;10.956;2024-02-26T12:07:18;96773.38;;;13.67;100.00
20156;BME280;10238;49.556;10.956;2024-02-26T12:10:23;96770.59;;;13.49;100.00
20156;BME280;10238;49.556;10.956;2024-02-26T12:13:14;96768.41;;;13.77;100.00
20156;BME280;10238;49.556;10.956;2024-02-26T12:16:06;96759.28;;;13.98;100.00
20156;BME280;10238;49.556;10.956;2024-02-26T12:18:55;96764.00;;;13.96;100.00
20156;BME280;10238;49.556;10.956;2024-02-26T12:21:44;96770.22;;;14.21;100.00
20156;BME280;10238;49.556;10.956;2024-02-26T12:24:31;96765.97;;;14.44;100.00
20156;BME280;10238;49.556;10.956;2024-02-26T12:27:20;96763.84;;;14.53;100.00
20156;BME280;10238;49.556;10.956;2024-02-26T12:30:10;96770.34;;;14.63;100.00
20156;BME280;10238;49.556;10.956;2024-02-26T12:32:59;96774.97;;;14.74;100.00
20156;BME280;10238;49.556;10.956;2024-02-26T12:35:47;96779.25;;;14.75;100.00
20156;BME280;10238;49.556;10.956;2024-02-26T12:38:36;96767.06;;;14.61;100.00
20156;BME280;10238;49.556;10.956;2024-02-26T12:41:25;96760.31;;;14.77;100.00
20156;BME280;10238;49.556;10.956;2024-02-26T12:44:15;96760.09;;;14.78;97.17
20156;BME280;10238;49.556;10.956;2024-02-26T12:47:04;96757.66;;;14.77;98.62
20156;BME280;10238;49.556;10.956;2024-02-26T12:49:52;96744.75;;;14.92;94.40
20156;BME280;10238;49.556;10.956;2024-02-26T12:52:44;96757.03;;;14.99;92.04
20156;BME280;10238;49.556;10.956;2024-02-26T12:55:33;96755.78;;;15.20;100.00
20156;BME280;10238;49.556;10.956;2024-02-26T12:58:23;96760.97;;;15.40;100.00
20156;BME280;10238;49.556;10.956;2024-02-26T13:01:18;96758.75;;;15.30;97.80
20156;BME280;10238;49.556;10.956;2024-02-26T13:04:07;96764.72;;;15.32;99.72
20156;BME280;10238;49.556;10.956;2024-02-26T13:06:55;96771.19;;;15.43;100.00
20156;BME280;10238;49.556;10.956;2024-02-26T13:09:47;96769.88;;;15.52;84.58
20156;BME280;10238;49.556;10.956;2024-02-26T13:12:35;96783.72;;;15.67;96.51
20156;BME280;10238;49.556;10.956;2024-02-26T13:15:23;96773.81;;;15.97;88.23
20156;BME280;10238;49.556;10.956;2024-02-26T13:18:14;96785.56;;;16.14;84.90
20156;BME280;10238;49.556;10.956;2024-02-26T13:21:13;96778.31;;;16.14;80.79
20156;BME280;10238;49.556;10.956;2024-02-26T13:24:02;96781.38;;;16.18;88.25
20156;BME280;10238;49.556;10.956;2024-02-26T13:26:54;96779.06;;;15.92;74.06
20156;BME280;10238;49.556;10.956;2024-02-26T13:29:42;96785.78;;;15.83;82.59
20156;BME280;10238;49.556;10.956;2024-02-26T13:32:33;96787.22;;;15.97;85.87
20156;BME280;10238;49.556;10.956;2024-02-26T13:35:23;96791.03;;;16.19;90.08
20156;BME280;10238;49.556;10.956;2024-02-26T13:38:11;96790.47;;;16.17;91.87
20156;BME280;10238;49.556;10.956;2024-02-26T13:40:59;96793.38;;;16.15;93.53
20156;BME280;10238;49.556;10.956;2024-02-26T13:43:47;96790.28;;;16.30;95.52
20156;BME280;10238;49.556;10.956;2024-02-26T13:46:35;96785.50;;;16.32;86.91
20156;BME280;10238;49.556;10.956;2024-02-26T13:49:23;96796.63;;;16.17;90.71
20156;BME280;10238;49.556;10.956;2024-02-26T13:52:13;96798.25;;;16.07;90.65
20156;BME280;10238;49.556;10.956;2024-02-26T13:55:01;96798.69;;;16.04;90.95
20156;BME280;10238;49.556;10.956;2024-02-26T13:57:49;96794.09;;;15.93;88.60
20156;BME280;10238;49.556;10.956;2024-02-26T14:00:38;96791.50;;;15.86;88.33
20156;BME280;10238;49.556;10.956;2024-02-26T14:03:28;96792.91;;;15.89;94.42
20156;BME280;10238;49.556;10.956;2024-02-26T14:06:16;96788.16;;;15.91;89.49
20156;BME280;10238;49.556;10.956;2024-02-26T14:09:05;96800.44;;;15.80;95.71
20156;BME280;10238;49.556;10.956;2024-02-26T14:11:53;96801.34;;;15.74;99.40
20156;BME280;10238;49.556;10.956;2024-02-26T14:14:41;96812.50;;;15.71;100.00
20156;BME280;10238;49.556;10.956;2024-02-26T14:17:29;96807.59;;;15.68;93.15
20156;BME280;10238;49.556;10.956;2024-02-26T14:20:17;96799.94;;;15.54;86.85
20156;BME280;10238;49.556;10.956;2024-02-26T14:23:04;96815.25;;;15.47;95.51
20156;BME280;10238;49.556;10.956;2024-02-26T14:25:54;96816.38;;;15.14;84.40
20156;BME280;10238;49.556;10.956;2024-02-26T14:28:41;96815.59;;;15.07;97.30
20156;BME280;10238;49.556;10.956;2024-02-26T14:31:29;96810.59;;;15.18;100.00
20156;BME280;10238;49.556;10.956;2024-02-26T14:34:17;96817.69;;;15.05;91.70
20156;BME280;10238;49.556;10.956;2024-02-26T14:37:05;96819.50;;;14.87;98.22
20156;BME280;10238;49.556;10.956;2024-02-26T14:39:53;96817.53;;;14.76;95.66